Terminal Aerodrome Forecast
Issued by NWS

Home | Current Version | Previous Version | Text Only | Print | Product List | Glossary On
Versions: 1 2 3 4 5 6 7 8 9 10 11 12 13 14 15 16 17
000
FTUS44 KHGX 230520
TAFSGR
TAF
KSGR 230520Z 2306/2406 00000KT P6SM SKC
     FM230900 VRB02KT 6SM BR BKN012
      TEMPO 2311/2313 4SM BR BKN007
     FM231500 18006KT P6SM BKN025
     FM231700 15011KT P6SM SCT050
     FM240300 16007KT P6SM BKN250=

USA.gov is the U.S. government's official web portal to all federal, state and local government web resources and services.